This is the latest recevied weather packets stored in our database for station/object IZ6EGX-13. If no packets are shown the sender has not sent any weather packets the latest 10 day(s).
| Time | Temp. | Humidity | Pressure | Rain* | Wind** | Luminosity | Snow |
|---|---|---|---|---|---|---|---|
| 1777354579 | 19.44° C | 58% | 1015.7 hPa | 0 mm | - | - | - |
| 1777353979 | 18.33° C | 57% | 1015.8 hPa | 0 mm | - | - | - |
| 1777353379 | 17.78° C | 57% | 1015.9 hPa | 0 mm | - | - | - |
| 1777352779 | 17.22° C | 57% | 1015.9 hPa | 0 mm | - | - | - |
| 1777352179 | 17.22° C | 57% | 1015.8 hPa | 0 mm | - | - | - |
| 1777351579 | 16.67° C | 60% | 1015.9 hPa | 0 mm | - | - | - |
| 1777350979 | 16.11° C | 62% | 1015.9 hPa | 0 mm | - | - | - |
| 1777350379 | 16.11° C | 62% | 1015.8 hPa | 0 mm | - | - | - |
| 1777349779 | 16.11° C | 62% | 1015.8 hPa | 0 mm | - | - | - |
| 1777349179 | 17.22° C | 58% | 1015.6 hPa | 0 mm | - | - | - |
| 1777348579 | 17.22° C | 58% | 1015.5 hPa | 0 mm | - | - | - |
| 1777347979 | 17.22° C | 58% | 1015.5 hPa | 0 mm | - | - | - |
| 1777347379 | 17.22° C | 58% | 1015.6 hPa | 0 mm | - | - | - |
| 1777346779 | 17.22° C | 59% | 1015.6 hPa | 0 mm | - | - | - |
| 1777346179 | 17.22° C | 58% | 1015.5 hPa | 0 mm | - | - | - |
| 1777345579 | 17.22° C | 56% | 1015.5 hPa | 0 mm | - | - | - |
| 1777344979 | 17.78° C | 55% | 1015.4 hPa | 0 mm | - | - | - |
| 1777344379 | 17.78° C | 53% | 1015.4 hPa | 0 mm | - | - | - |
| 1777343779 | 17.78° C | 53% | 1015.5 hPa | 0 mm | - | - | - |
| 1777343179 | 17.78° C | 52% | 1015.5 hPa | 0 mm | - | - | - |
| 1777342579 | 18.33° C | 50% | 1015.4 hPa | 0 mm | - | - | - |
| 1777341979 | 18.33° C | 50% | 1015.5 hPa | 0 mm | - | - | - |
| 1777341379 | 17.78° C | 51% | 1015.6 hPa | 0 mm | - | - | - |
| 1777340779 | 18.89° C | 49% | 1015.5 hPa | 0 mm | - | - | - |
| 1777340179 | 19.44° C | 46% | 1015.4 hPa | 0 mm | - | - | - |
* Rain latest hour (hover to see other rain measurements)
** Current wind speed in m/s (hover to see current wind gust speed)